sensor_id;sensor_type;location;lat;lon;timestamp;P1;durP1;ratioP1;P2;durP2;ratioP2
20832;SDS011;56075;51.264;7.150;2022-10-18T00:00:58;9.82;;;3.85;;
20832;SDS011;56075;51.264;7.150;2022-10-18T00:03:29;6.30;;;3.88;;
20832;SDS011;56075;51.264;7.150;2022-10-18T00:06:01;9.02;;;3.40;;
20832;SDS011;56075;51.264;7.150;2022-10-18T00:08:34;9.30;;;4.50;;
20832;SDS011;56075;51.264;7.150;2022-10-18T00:11:06;9.70;;;4.38;;
20832;SDS011;56075;51.264;7.150;2022-10-18T00:13:37;8.75;;;4.15;;
20832;SDS011;56075;51.264;7.150;2022-10-18T00:16:10;10.27;;;4.53;;
20832;SDS011;56075;51.264;7.150;2022-10-18T00:18:43;13.10;;;4.55;;
20832;SDS011;56075;51.264;7.150;2022-10-18T00:21:16;9.63;;;4.60;;
20832;SDS011;56075;51.264;7.150;2022-10-18T00:23:49;11.77;;;4.63;;
20832;SDS011;56075;51.264;7.150;2022-10-18T00:26:23;9.90;;;4.53;;
20832;SDS011;56075;51.264;7.150;2022-10-18T00:28:57;13.00;;;5.68;;
20832;SDS011;56075;51.264;7.150;2022-10-18T00:31:31;13.35;;;5.82;;
20832;SDS011;56075;51.264;7.150;2022-10-18T00:34:05;15.85;;;7.22;;
20832;SDS011;56075;51.264;7.150;2022-10-18T00:36:40;11.27;;;5.85;;
20832;SDS011;56075;51.264;7.150;2022-10-18T00:39:15;10.63;;;5.15;;
20832;SDS011;56075;51.264;7.150;2022-10-18T00:41:49;11.00;;;5.30;;
20832;SDS011;56075;51.264;7.150;2022-10-18T00:46:55;13.27;;;5.30;;
20832;SDS011;56075;51.264;7.150;2022-10-18T00:49:35;10.18;;;5.07;;
20832;SDS011;56075;51.264;7.150;2022-10-18T00:52:09;10.07;;;4.95;;
20832;SDS011;56075;51.264;7.150;2022-10-18T00:54:45;14.07;;;5.30;;
20832;SDS011;56075;51.264;7.150;2022-10-18T00:57:17;12.60;;;5.35;;
20832;SDS011;56075;51.264;7.150;2022-10-18T00:59:48;11.80;;;5.15;;
20832;SDS011;56075;51.264;7.150;2022-10-18T01:02:20;13.45;;;5.43;;
20832;SDS011;56075;51.264;7.150;2022-10-18T01:04:51;14.05;;;5.70;;
20832;SDS011;56075;51.264;7.150;2022-10-18T01:12:49;15.95;;;5.20;;
20832;SDS011;56075;51.264;7.150;2022-10-18T01:15:49;11.25;;;5.22;;
20832;SDS011;56075;51.264;7.150;2022-10-18T01:36:03;14.40;;;6.65;;
20832;SDS011;56075;51.264;7.150;2022-10-18T01:38:53;14.70;;;6.10;;
20832;SDS011;56075;51.264;7.150;2022-10-18T01:41:28;12.77;;;5.93;;
20832;SDS011;56075;51.264;7.150;2022-10-18T01:44:00;13.50;;;6.25;;
20832;SDS011;56075;51.264;7.150;2022-10-18T01:46:34;15.63;;;6.32;;
20832;SDS011;56075;51.264;7.150;2022-10-18T01:49:07;14.85;;;7.07;;
20832;SDS011;56075;51.264;7.150;2022-10-18T01:51:38;14.70;;;6.63;;
20832;SDS011;56075;51.264;7.150;2022-10-18T01:54:09;14.68;;;6.60;;
20832;SDS011;56075;51.264;7.150;2022-10-18T01:56:52;13.15;;;6.22;;
20832;SDS011;56075;51.264;7.150;2022-10-18T02:08:20;13.65;;;6.65;;
20832;SDS011;56075;51.264;7.150;2022-10-18T02:11:16;13.90;;;6.20;;
20832;SDS011;56075;51.264;7.150;2022-10-18T02:13:49;12.75;;;6.07;;
20832;SDS011;56075;51.264;7.150;2022-10-18T02:16:26;15.52;;;5.90;;
20832;SDS011;56075;51.264;7.150;2022-10-18T02:19:19;17.98;;;6.43;;
20832;SDS011;56075;51.264;7.150;2022-10-18T02:21:56;18.20;;;6.60;;
20832;SDS011;56075;51.264;7.150;2022-10-18T02:24:37;17.00;;;6.97;;
20832;SDS011;56075;51.264;7.150;2022-10-18T02:27:12;15.73;;;6.97;;
20832;SDS011;56075;51.264;7.150;2022-10-18T02:29:43;15.38;;;6.50;;
20832;SDS011;56075;51.264;7.150;2022-10-18T02:32:17;13.55;;;6.32;;
20832;SDS011;56075;51.264;7.150;2022-10-18T02:35:07;17.23;;;6.38;;
20832;SDS011;56075;51.264;7.150;2022-10-18T02:37:48;13.60;;;6.15;;
20832;SDS011;56075;51.264;7.150;2022-10-18T02:40:22;22.15;;;8.65;;
20832;SDS011;56075;51.264;7.150;2022-10-18T02:42:54;21.08;;;9.10;;
20832;SDS011;56075;51.264;7.150;2022-10-18T02:45:27;15.65;;;7.28;;
20832;SDS011;56075;51.264;7.150;2022-10-18T02:47:58;14.73;;;6.70;;
20832;SDS011;56075;51.264;7.150;2022-10-18T02:50:29;20.98;;;7.45;;
20832;SDS011;56075;51.264;7.150;2022-10-18T02:53:00;18.73;;;6.75;;
20832;SDS011;56075;51.264;7.150;2022-10-18T02:55:32;15.80;;;6.57;;
20832;SDS011;56075;51.264;7.150;2022-10-18T02:58:03;15.60;;;6.32;;
20832;SDS011;56075;51.264;7.150;2022-10-18T03:00:34;15.75;;;5.60;;
20832;SDS011;56075;51.264;7.150;2022-10-18T03:03:05;18.05;;;6.10;;
20832;SDS011;56075;51.264;7.150;2022-10-18T03:05:36;18.17;;;7.47;;
20832;SDS011;56075;51.264;7.150;2022-10-18T03:08:07;22.33;;;9.15;;
20832;SDS011;56075;51.264;7.150;2022-10-18T03:10:38;27.90;;;10.07;;
20832;SDS011;56075;51.264;7.150;2022-10-18T03:13:09;18.30;;;7.90;;
20832;SDS011;56075;51.264;7.150;2022-10-18T03:15:41;19.17;;;7.53;;
20832;SDS011;56075;51.264;7.150;2022-10-18T03:18:12;20.27;;;7.38;;
20832;SDS011;56075;51.264;7.150;2022-10-18T03:20:43;19.02;;;7.53;;
20832;SDS011;56075;51.264;7.150;2022-10-18T03:23:14;18.58;;;7.65;;
20832;SDS011;56075;51.264;7.150;2022-10-18T03:25:45;20.35;;;7.10;;
20832;SDS011;56075;51.264;7.150;2022-10-18T03:28:17;26.15;;;7.78;;
20832;SDS011;56075;51.264;7.150;2022-10-18T03:30:48;25.02;;;8.38;;
20832;SDS011;56075;51.264;7.150;2022-10-18T03:33:19;23.65;;;8.65;;
20832;SDS011;56075;51.264;7.150;2022-10-18T03:35:50;25.00;;;8.80;;
20832;SDS011;56075;51.264;7.150;2022-10-18T03:38:21;25.00;;;8.82;;
20832;SDS011;56075;51.264;7.150;2022-10-18T03:40:52;24.15;;;9.02;;
20832;SDS011;56075;51.264;7.150;2022-10-18T03:43:23;27.63;;;9.70;;
20832;SDS011;56075;51.264;7.150;2022-10-18T03:45:54;31.00;;;10.20;;
20832;SDS011;56075;51.264;7.150;2022-10-18T03:48:25;27.90;;;9.38;;
20832;SDS011;56075;51.264;7.150;2022-10-18T03:50:57;28.95;;;9.68;;
20832;SDS011;56075;51.264;7.150;2022-10-18T03:53:28;22.20;;;9.02;;
20832;SDS011;56075;51.264;7.150;2022-10-18T03:55:59;26.20;;;9.38;;
20832;SDS011;56075;51.264;7.150;2022-10-18T03:58:30;25.63;;;8.90;;
20832;SDS011;56075;51.264;7.150;2022-10-18T04:01:01;29.13;;;10.20;;
20832;SDS011;56075;51.264;7.150;2022-10-18T04:03:32;26.40;;;10.27;;
20832;SDS011;56075;51.264;7.150;2022-10-18T04:06:03;23.05;;;8.90;;
20832;SDS011;56075;51.264;7.150;2022-10-18T04:08:35;26.13;;;8.60;;
20832;SDS011;56075;51.264;7.150;2022-10-18T04:11:06;24.90;;;9.73;;
20832;SDS011;56075;51.264;7.150;2022-10-18T04:13:38;22.98;;;9.75;;
20832;SDS011;56075;51.264;7.150;2022-10-18T04:16:09;24.77;;;9.85;;
20832;SDS011;56075;51.264;7.150;2022-10-18T04:18:40;26.30;;;9.68;;
20832;SDS011;56075;51.264;7.150;2022-10-18T04:21:11;28.08;;;9.68;;
20832;SDS011;56075;51.264;7.150;2022-10-18T04:23:42;26.52;;;9.82;;
20832;SDS011;56075;51.264;7.150;2022-10-18T04:26:13;20.73;;;8.27;;
20832;SDS011;56075;51.264;7.150;2022-10-18T04:28:46;27.42;;;9.43;;
20832;SDS011;56075;51.264;7.150;2022-10-18T04:31:17;28.85;;;11.85;;
20832;SDS011;56075;51.264;7.150;2022-10-18T04:33:48;39.63;;;11.60;;
20832;SDS011;56075;51.264;7.150;2022-10-18T04:36:19;31.25;;;11.50;;
20832;SDS011;56075;51.264;7.150;2022-10-18T04:38:50;33.65;;;11.98;;
20832;SDS011;56075;51.264;7.150;2022-10-18T04:41:21;33.15;;;11.35;;
20832;SDS011;56075;51.264;7.150;2022-10-18T04:43:52;35.83;;;12.35;;
20832;SDS011;56075;51.264;7.150;2022-10-18T04:46:23;35.55;;;12.25;;
20832;SDS011;56075;51.264;7.150;2022-10-18T04:48:55;33.72;;;12.65;;
20832;SDS011;56075;51.264;7.150;2022-10-18T04:51:26;33.20;;;12.35;;
20832;SDS011;56075;51.264;7.150;2022-10-18T04:53:58;37.55;;;12.35;;
20832;SDS011;56075;51.264;7.150;2022-10-18T04:56:29;35.05;;;11.85;;
20832;SDS011;56075;51.264;7.150;2022-10-18T04:59:00;32.55;;;11.30;;
20832;SDS011;56075;51.264;7.150;2022-10-18T05:01:32;35.15;;;11.57;;
20832;SDS011;56075;51.264;7.150;2022-10-18T05:04:03;39.78;;;12.73;;
20832;SDS011;56075;51.264;7.150;2022-10-18T05:06:34;37.03;;;12.65;;
20832;SDS011;56075;51.264;7.150;2022-10-18T05:09:05;32.85;;;12.57;;
20832;SDS011;56075;51.264;7.150;2022-10-18T05:11:36;32.08;;;11.68;;
20832;SDS011;56075;51.264;7.150;2022-10-18T05:14:07;32.50;;;11.52;;
20832;SDS011;56075;51.264;7.150;2022-10-18T05:16:40;28.88;;;10.57;;
20832;SDS011;56075;51.264;7.150;2022-10-18T05:19:11;35.20;;;10.95;;
20832;SDS011;56075;51.264;7.150;2022-10-18T05:21:42;35.85;;;11.20;;
20832;SDS011;56075;51.264;7.150;2022-10-18T05:24:13;34.42;;;11.20;;
20832;SDS011;56075;51.264;7.150;2022-10-18T05:26:44;42.70;;;12.00;;
20832;SDS011;56075;51.264;7.150;2022-10-18T05:29:16;42.72;;;12.20;;
20832;SDS011;56075;51.264;7.150;2022-10-18T05:31:47;44.05;;;12.23;;
20832;SDS011;56075;51.264;7.150;2022-10-18T05:34:19;44.63;;;12.27;;
20832;SDS011;56075;51.264;7.150;2022-10-18T05:36:50;57.25;;;15.02;;
20832;SDS011;56075;51.264;7.150;2022-10-18T05:39:21;46.55;;;12.85;;
20832;SDS011;56075;51.264;7.150;2022-10-18T05:41:52;44.67;;;12.23;;
20832;SDS011;56075;51.264;7.150;2022-10-18T05:44:24;49.25;;;12.20;;
20832;SDS011;56075;51.264;7.150;2022-10-18T05:46:55;46.15;;;12.18;;
20832;SDS011;56075;51.264;7.150;2022-10-18T05:49:26;54.17;;;12.82;;
20832;SDS011;56075;51.264;7.150;2022-10-18T05:51:57;47.83;;;12.55;;
20832;SDS011;56075;51.264;7.150;2022-10-18T05:54:28;68.60;;;16.08;;
20832;SDS011;56075;51.264;7.150;2022-10-18T05:56:59;61.80;;;14.73;;
20832;SDS011;56075;51.264;7.150;2022-10-18T05:59:32;56.47;;;14.05;;
20832;SDS011;56075;51.264;7.150;2022-10-18T06:02:03;71.13;;;15.20;;
20832;SDS011;56075;51.264;7.150;2022-10-18T06:04:34;63.33;;;15.48;;
20832;SDS011;56075;51.264;7.150;2022-10-18T06:07:09;72.47;;;15.18;;
20832;SDS011;56075;51.264;7.150;2022-10-18T06:09:40;71.93;;;16.77;;
20832;SDS011;56075;51.264;7.150;2022-10-18T06:12:11;93.13;;;17.08;;
20832;SDS011;56075;51.264;7.150;2022-10-18T06:14:43;87.57;;;18.70;;
20832;SDS011;56075;51.264;7.150;2022-10-18T06:17:14;87.40;;;17.08;;
20832;SDS011;56075;51.264;7.150;2022-10-18T06:19:45;96.68;;;18.85;;
20832;SDS011;56075;51.264;7.150;2022-10-18T06:22:16;96.22;;;18.70;;
20832;SDS011;56075;51.264;7.150;2022-10-18T06:24:47;103.85;;;19.13;;
20832;SDS011;56075;51.264;7.150;2022-10-18T06:27:18;108.85;;;19.42;;
20832;SDS011;56075;51.264;7.150;2022-10-18T06:29:50;116.95;;;21.08;;
20832;SDS011;56075;51.264;7.150;2022-10-18T06:32:21;144.20;;;22.10;;
20832;SDS011;56075;51.264;7.150;2022-10-18T06:34:52;141.32;;;21.60;;
20832;SDS011;56075;51.264;7.150;2022-10-18T06:37:24;141.05;;;21.23;;
20832;SDS011;56075;51.264;7.150;2022-10-18T06:39:55;142.32;;;21.52;;
20832;SDS011;56075;51.264;7.150;2022-10-18T06:42:26;147.52;;;22.55;;
20832;SDS011;56075;51.264;7.150;2022-10-18T06:44:58;154.98;;;23.77;;
20832;SDS011;56075;51.264;7.150;2022-10-18T06:47:30;124.47;;;21.20;;
20832;SDS011;56075;51.264;7.150;2022-10-18T06:50:01;137.23;;;21.08;;
20832;SDS011;56075;51.264;7.150;2022-10-18T06:52:32;134.45;;;21.10;;
20832;SDS011;56075;51.264;7.150;2022-10-18T06:55:03;134.80;;;23.27;;
20832;SDS011;56075;51.264;7.150;2022-10-18T06:57:35;141.13;;;22.80;;
20832;SDS011;56075;51.264;7.150;2022-10-18T07:00:07;161.95;;;23.98;;
20832;SDS011;56075;51.264;7.150;2022-10-18T07:02:38;165.23;;;23.38;;
20832;SDS011;56075;51.264;7.150;2022-10-18T07:05:11;165.48;;;24.42;;
20832;SDS011;56075;51.264;7.150;2022-10-18T07:07:42;161.68;;;24.08;;
20832;SDS011;56075;51.264;7.150;2022-10-18T07:10:13;181.70;;;24.35;;
20832;SDS011;56075;51.264;7.150;2022-10-18T07:12:44;158.25;;;25.20;;
20832;SDS011;56075;51.264;7.150;2022-10-18T07:15:15;166.13;;;24.80;;
20832;SDS011;56075;51.264;7.150;2022-10-18T07:17:47;162.13;;;24.42;;
20832;SDS011;56075;51.264;7.150;2022-10-18T07:20:19;168.27;;;24.33;;
20832;SDS011;56075;51.264;7.150;2022-10-18T07:22:54;164.63;;;25.58;;
20832;SDS011;56075;51.264;7.150;2022-10-18T07:25:26;165.70;;;25.13;;
20832;SDS011;56075;51.264;7.150;2022-10-18T07:27:57;161.40;;;24.20;;
20832;SDS011;56075;51.264;7.150;2022-10-18T07:30:29;164.70;;;23.83;;
20832;SDS011;56075;51.264;7.150;2022-10-18T07:33:00;155.75;;;25.20;;
20832;SDS011;56075;51.264;7.150;2022-10-18T07:35:32;206.57;;;32.42;;
20832;SDS011;56075;51.264;7.150;2022-10-18T07:38:03;161.45;;;25.70;;
20832;SDS011;56075;51.264;7.150;2022-10-18T07:40:34;169.50;;;26.00;;
20832;SDS011;56075;51.264;7.150;2022-10-18T07:43:05;168.15;;;24.20;;
20832;SDS011;56075;51.264;7.150;2022-10-18T07:45:37;177.00;;;26.58;;
20832;SDS011;56075;51.264;7.150;2022-10-18T07:48:08;175.55;;;24.40;;
20832;SDS011;56075;51.264;7.150;2022-10-18T07:50:39;160.43;;;24.38;;
20832;SDS011;56075;51.264;7.150;2022-10-18T07:53:10;141.52;;;23.10;;
20832;SDS011;56075;51.264;7.150;2022-10-18T07:55:41;149.30;;;22.65;;
20832;SDS011;56075;51.264;7.150;2022-10-18T07:58:14;164.63;;;24.98;;
20832;SDS011;56075;51.264;7.150;2022-10-18T08:00:45;168.05;;;25.67;;
20832;SDS011;56075;51.264;7.150;2022-10-18T08:03:16;153.93;;;24.33;;
20832;SDS011;56075;51.264;7.150;2022-10-18T08:05:51;140.60;;;24.20;;
20832;SDS011;56075;51.264;7.150;2022-10-18T08:08:23;130.18;;;21.45;;
20832;SDS011;56075;51.264;7.150;2022-10-18T08:11:00;142.68;;;24.20;;
20832;SDS011;56075;51.264;7.150;2022-10-18T08:13:33;150.00;;;24.30;;
20832;SDS011;56075;51.264;7.150;2022-10-18T08:16:05;137.65;;;23.90;;
20832;SDS011;56075;51.264;7.150;2022-10-18T08:18:38;139.05;;;24.45;;
20832;SDS011;56075;51.264;7.150;2022-10-18T08:21:10;162.00;;;29.90;;
20832;SDS011;56075;51.264;7.150;2022-10-18T08:23:42;123.75;;;24.17;;
20832;SDS011;56075;51.264;7.150;2022-10-18T08:26:15;125.30;;;25.08;;
20832;SDS011;56075;51.264;7.150;2022-10-18T08:28:48;133.43;;;24.52;;
20832;SDS011;56075;51.264;7.150;2022-10-18T08:31:19;121.68;;;23.25;;
20832;SDS011;56075;51.264;7.150;2022-10-18T08:33:50;120.97;;;23.80;;
20832;SDS011;56075;51.264;7.150;2022-10-18T08:36:23;118.95;;;23.77;;
20832;SDS011;56075;51.264;7.150;2022-10-18T08:38:55;129.57;;;25.30;;
20832;SDS011;56075;51.264;7.150;2022-10-18T08:44:09;126.88;;;25.75;;
20832;SDS011;56075;51.264;7.150;2022-10-18T08:47:15;132.57;;;25.92;;
20832;SDS011;56075;51.264;7.150;2022-10-18T08:49:49;122.88;;;23.20;;
20832;SDS011;56075;51.264;7.150;2022-10-18T08:52:32;138.05;;;25.27;;
20832;SDS011;56075;51.264;7.150;2022-10-18T08:55:20;122.75;;;24.55;;
20832;SDS011;56075;51.264;7.150;2022-10-18T08:58:21;127.32;;;23.75;;
20832;SDS011;56075;51.264;7.150;2022-10-18T09:01:16;122.32;;;23.63;;
20832;SDS011;56075;51.264;7.150;2022-10-18T09:04:06;125.40;;;25.05;;
20832;SDS011;56075;51.264;7.150;2022-10-18T09:09:59;134.18;;;26.02;;
20832;SDS011;56075;51.264;7.150;2022-10-18T09:20:51;123.57;;;24.52;;
20832;SDS011;56075;51.264;7.150;2022-10-18T09:23:48;119.47;;;26.15;;
20832;SDS011;56075;51.264;7.150;2022-10-18T09:26:23;108.35;;;24.05;;
20832;SDS011;56075;51.264;7.150;2022-10-18T09:35:20;87.35;;;23.02;;
20832;SDS011;56075;51.264;7.150;2022-10-18T09:38:01;87.50;;;22.10;;
20832;SDS011;56075;51.264;7.150;2022-10-18T09:40:44;91.13;;;23.27;;
20832;SDS011;56075;51.264;7.150;2022-10-18T09:43:24;89.07;;;22.70;;
20832;SDS011;56075;51.264;7.150;2022-10-18T09:46:04;82.47;;;22.95;;
20832;SDS011;56075;51.264;7.150;2022-10-18T09:48:48;88.80;;;23.67;;
20832;SDS011;56075;51.264;7.150;2022-10-18T09:51:23;78.32;;;22.42;;
20832;SDS011;56075;51.264;7.150;2022-10-18T09:54:13;85.53;;;23.48;;
20832;SDS011;56075;51.264;7.150;2022-10-18T09:57:05;79.50;;;22.38;;
20832;SDS011;56075;51.264;7.150;2022-10-18T09:59:43;82.38;;;22.55;;
20832;SDS011;56075;51.264;7.150;2022-10-18T10:02:20;74.90;;;22.77;;
20832;SDS011;56075;51.264;7.150;2022-10-18T10:04:52;64.13;;;20.95;;
20832;SDS011;56075;51.264;7.150;2022-10-18T10:07:28;65.50;;;22.27;;
20832;SDS011;56075;51.264;7.150;2022-10-18T10:10:11;62.13;;;21.90;;
20832;SDS011;56075;51.264;7.150;2022-10-18T10:15:36;55.40;;;20.75;;
20832;SDS011;56075;51.264;7.150;2022-10-18T10:20:54;49.28;;;20.58;;
20832;SDS011;56075;51.264;7.150;2022-10-18T10:23:48;46.75;;;18.55;;
20832;SDS011;56075;51.264;7.150;2022-10-18T10:26:23;53.20;;;20.75;;
20832;SDS011;56075;51.264;7.150;2022-10-18T10:29:03;44.95;;;19.73;;
20832;SDS011;56075;51.264;7.150;2022-10-18T10:32:00;48.83;;;20.05;;
20832;SDS011;56075;51.264;7.150;2022-10-18T10:34:33;44.50;;;18.75;;
20832;SDS011;56075;51.264;7.150;2022-10-18T10:37:08;51.65;;;20.48;;
20832;SDS011;56075;51.264;7.150;2022-10-18T10:42:38;47.00;;;18.95;;
20832;SDS011;56075;51.264;7.150;2022-10-18T10:48:49;44.88;;;20.13;;
20832;SDS011;56075;51.264;7.150;2022-10-18T10:51:28;45.35;;;20.20;;
20832;SDS011;56075;51.264;7.150;2022-10-18T10:54:02;45.38;;;22.45;;
20832;SDS011;56075;51.264;7.150;2022-10-18T10:56:35;41.00;;;17.95;;
20832;SDS011;56075;51.264;7.150;2022-10-18T10:59:19;41.03;;;18.35;;
20832;SDS011;56075;51.264;7.150;2022-10-18T11:05:20;43.38;;;18.33;;
20832;SDS011;56075;51.264;7.150;2022-10-18T11:08:00;43.00;;;19.10;;
20832;SDS011;56075;51.264;7.150;2022-10-18T11:10:34;41.60;;;18.98;;
20832;SDS011;56075;51.264;7.150;2022-10-18T11:16:28;45.05;;;20.13;;
20832;SDS011;56075;51.264;7.150;2022-10-18T11:19:09;44.17;;;19.52;;
20832;SDS011;56075;51.264;7.150;2022-10-18T11:21:55;50.28;;;19.80;;
20832;SDS011;56075;51.264;7.150;2022-10-18T11:24:29;49.28;;;20.17;;
20832;SDS011;56075;51.264;7.150;2022-10-18T11:27:12;42.75;;;19.10;;
20832;SDS011;56075;51.264;7.150;2022-10-18T11:30:16;41.67;;;19.25;;
20832;SDS011;56075;51.264;7.150;2022-10-18T11:33:00;40.88;;;18.25;;
20832;SDS011;56075;51.264;7.150;2022-10-18T11:41:27;33.08;;;15.57;;
20832;SDS011;56075;51.264;7.150;2022-10-18T11:50:05;36.88;;;17.83;;
20832;SDS011;56075;51.264;7.150;2022-10-18T12:01:31;45.67;;;18.63;;
20832;SDS011;56075;51.264;7.150;2022-10-18T12:04:13;43.72;;;19.80;;
20832;SDS011;56075;51.264;7.150;2022-10-18T12:06:49;45.88;;;19.75;;
20832;SDS011;56075;51.264;7.150;2022-10-18T12:09:43;43.63;;;20.13;;
20832;SDS011;56075;51.264;7.150;2022-10-18T12:12:24;44.33;;;19.10;;
20832;SDS011;56075;51.264;7.150;2022-10-18T12:15:00;40.75;;;17.92;;
20832;SDS011;56075;51.264;7.150;2022-10-18T12:17:42;43.58;;;18.48;;
20832;SDS011;56075;51.264;7.150;2022-10-18T12:20:34;43.70;;;17.60;;
20832;SDS011;56075;51.264;7.150;2022-10-18T12:23:33;37.92;;;17.38;;
20832;SDS011;56075;51.264;7.150;2022-10-18T12:26:12;41.97;;;18.15;;
20832;SDS011;56075;51.264;7.150;2022-10-18T12:29:02;39.83;;;17.10;;
20832;SDS011;56075;51.264;7.150;2022-10-18T12:31:55;40.22;;;17.30;;
20832;SDS011;56075;51.264;7.150;2022-10-18T12:34:31;40.13;;;16.95;;
20832;SDS011;56075;51.264;7.150;2022-10-18T12:37:16;44.45;;;18.20;;
20832;SDS011;56075;51.264;7.150;2022-10-18T12:39:52;41.42;;;17.73;;
20832;SDS011;56075;51.264;7.150;2022-10-18T12:42:44;39.78;;;15.77;;
20832;SDS011;56075;51.264;7.150;2022-10-18T12:48:04;42.90;;;18.83;;
20832;SDS011;56075;51.264;7.150;2022-10-18T12:50:37;42.05;;;18.50;;
20832;SDS011;56075;51.264;7.150;2022-10-18T12:55:43;42.75;;;18.02;;
20832;SDS011;56075;51.264;7.150;2022-10-18T13:00:54;42.53;;;17.70;;
20832;SDS011;56075;51.264;7.150;2022-10-18T13:03:28;41.88;;;18.10;;
20832;SDS011;56075;51.264;7.150;2022-10-18T13:06:07;36.67;;;17.40;;
20832;SDS011;56075;51.264;7.150;2022-10-18T13:08:39;39.83;;;17.35;;
20832;SDS011;56075;51.264;7.150;2022-10-18T13:11:13;36.53;;;16.40;;
20832;SDS011;56075;51.264;7.150;2022-10-18T13:16:59;27.27;;;13.70;;
20832;SDS011;56075;51.264;7.150;2022-10-18T13:22:47;29.52;;;14.52;;
20832;SDS011;56075;51.264;7.150;2022-10-18T13:28:39;26.63;;;13.00;;
20832;SDS011;56075;51.264;7.150;2022-10-18T13:31:28;22.00;;;11.60;;
20832;SDS011;56075;51.264;7.150;2022-10-18T13:36:58;22.80;;;10.23;;
20832;SDS011;56075;51.264;7.150;2022-10-18T13:39:30;22.60;;;10.90;;
20832;SDS011;56075;51.264;7.150;2022-10-18T13:51:01;17.00;;;8.98;;
20832;SDS011;56075;51.264;7.150;2022-10-18T13:54:39;16.17;;;9.38;;
20832;SDS011;56075;51.264;7.150;2022-10-18T13:56:51;18.35;;;9.80;;
20832;SDS011;56075;51.264;7.150;2022-10-18T13:59:39;22.65;;;8.77;;
20832;SDS011;56075;51.264;7.150;2022-10-18T14:02:32;16.40;;;8.02;;
20832;SDS011;56075;51.264;7.150;2022-10-18T14:05:13;12.05;;;6.78;;
20832;SDS011;56075;51.264;7.150;2022-10-18T14:07:44;13.50;;;7.03;;
20832;SDS011;56075;51.264;7.150;2022-10-18T14:10:24;13.65;;;5.93;;
20832;SDS011;56075;51.264;7.150;2022-10-18T14:13:12;12.82;;;6.28;;
20832;SDS011;56075;51.264;7.150;2022-10-18T14:15:50;14.60;;;6.65;;
20832;SDS011;56075;51.264;7.150;2022-10-18T14:18:25;13.98;;;6.22;;
20832;SDS011;56075;51.264;7.150;2022-10-18T14:21:02;18.23;;;7.00;;
20832;SDS011;56075;51.264;7.150;2022-10-18T14:23:41;13.18;;;6.93;;
20832;SDS011;56075;51.264;7.150;2022-10-18T14:26:15;15.00;;;7.35;;
20832;SDS011;56075;51.264;7.150;2022-10-18T14:29:01;15.23;;;6.10;;
20832;SDS011;56075;51.264;7.150;2022-10-18T14:31:34;14.82;;;5.53;;
20832;SDS011;56075;51.264;7.150;2022-10-18T14:34:09;11.25;;;5.45;;
20832;SDS011;56075;51.264;7.150;2022-10-18T14:36:45;11.68;;;5.40;;
20832;SDS011;56075;51.264;7.150;2022-10-18T14:39:19;13.15;;;5.40;;
20832;SDS011;56075;51.264;7.150;2022-10-18T14:41:56;13.30;;;5.68;;
20832;SDS011;56075;51.264;7.150;2022-10-18T14:44:29;12.48;;;5.90;;
20832;SDS011;56075;51.264;7.150;2022-10-18T14:49:43;16.90;;;6.20;;
20832;SDS011;56075;51.264;7.150;2022-10-18T14:52:16;14.73;;;6.18;;
20832;SDS011;56075;51.264;7.150;2022-10-18T14:54:49;14.05;;;5.93;;
20832;SDS011;56075;51.264;7.150;2022-10-18T14:57:27;12.80;;;4.93;;
20832;SDS011;56075;51.264;7.150;2022-10-18T15:00:03;15.20;;;5.03;;
20832;SDS011;56075;51.264;7.150;2022-10-18T15:02:37;14.77;;;4.63;;
20832;SDS011;56075;51.264;7.150;2022-10-18T15:07:50;12.10;;;4.47;;
20832;SDS011;56075;51.264;7.150;2022-10-18T15:10:23;12.25;;;4.18;;
20832;SDS011;56075;51.264;7.150;2022-10-18T15:12:58;11.27;;;4.10;;
20832;SDS011;56075;51.264;7.150;2022-10-18T15:15:32;11.85;;;3.88;;
20832;SDS011;56075;51.264;7.150;2022-10-18T15:18:05;13.05;;;3.92;;
20832;SDS011;56075;51.264;7.150;2022-10-18T15:20:37;11.25;;;3.53;;
20832;SDS011;56075;51.264;7.150;2022-10-18T15:23:20;14.13;;;4.22;;
20832;SDS011;56075;51.264;7.150;2022-10-18T15:25:58;10.68;;;3.97;;
20832;SDS011;56075;51.264;7.150;2022-10-18T15:28:39;11.70;;;4.72;;
20832;SDS011;56075;51.264;7.150;2022-10-18T15:31:21;15.63;;;4.35;;
20832;SDS011;56075;51.264;7.150;2022-10-18T15:36:41;12.55;;;3.90;;
20832;SDS011;56075;51.264;7.150;2022-10-18T15:39:19;10.38;;;3.03;;
20832;SDS011;56075;51.264;7.150;2022-10-18T15:41:56;12.60;;;3.33;;
20832;SDS011;56075;51.264;7.150;2022-10-18T15:44:31;11.68;;;3.20;;
20832;SDS011;56075;51.264;7.150;2022-10-18T15:55:00;8.75;;;2.90;;
20832;SDS011;56075;51.264;7.150;2022-10-18T15:57:51;14.02;;;3.90;;
20832;SDS011;56075;51.264;7.150;2022-10-18T16:00:23;12.30;;;3.25;;
20832;SDS011;56075;51.264;7.150;2022-10-18T16:02:54;11.25;;;2.90;;
20832;SDS011;56075;51.264;7.150;2022-10-18T16:05:25;12.20;;;3.45;;
20832;SDS011;56075;51.264;7.150;2022-10-18T16:07:56;11.55;;;3.08;;
20832;SDS011;56075;51.264;7.150;2022-10-18T16:10:28;11.50;;;2.80;;
20832;SDS011;56075;51.264;7.150;2022-10-18T16:12:59;9.57;;;3.20;;
20832;SDS011;56075;51.264;7.150;2022-10-18T16:15:30;16.75;;;3.60;;
20832;SDS011;56075;51.264;7.150;2022-10-18T16:18:01;11.77;;;3.85;;
20832;SDS011;56075;51.264;7.150;2022-10-18T16:20:32;11.57;;;4.03;;
20832;SDS011;56075;51.264;7.150;2022-10-18T16:23:08;10.80;;;3.50;;
20832;SDS011;56075;51.264;7.150;2022-10-18T16:25:51;10.05;;;3.45;;
20832;SDS011;56075;51.264;7.150;2022-10-18T16:28:23;13.02;;;4.13;;
20832;SDS011;56075;51.264;7.150;2022-10-18T16:30:56;14.90;;;3.80;;
20832;SDS011;56075;51.264;7.150;2022-10-18T16:33:32;13.35;;;3.60;;
20832;SDS011;56075;51.264;7.150;2022-10-18T16:36:06;13.68;;;3.72;;
20832;SDS011;56075;51.264;7.150;2022-10-18T16:38:37;13.20;;;3.80;;
20832;SDS011;56075;51.264;7.150;2022-10-18T16:41:08;10.75;;;4.15;;
20832;SDS011;56075;51.264;7.150;2022-10-18T16:43:43;13.68;;;3.88;;
20832;SDS011;56075;51.264;7.150;2022-10-18T16:46:20;13.80;;;4.70;;
20832;SDS011;56075;51.264;7.150;2022-10-18T16:48:53;13.57;;;4.57;;
20832;SDS011;56075;51.264;7.150;2022-10-18T16:51:25;16.25;;;5.63;;
20832;SDS011;56075;51.264;7.150;2022-10-18T16:53:56;16.88;;;5.15;;
20832;SDS011;56075;51.264;7.150;2022-10-18T16:56:28;12.98;;;4.35;;
20832;SDS011;56075;51.264;7.150;2022-10-18T16:59:01;13.07;;;4.13;;
20832;SDS011;56075;51.264;7.150;2022-10-18T17:01:33;9.85;;;3.58;;
20832;SDS011;56075;51.264;7.150;2022-10-18T17:04:05;13.88;;;3.55;;
20832;SDS011;56075;51.264;7.150;2022-10-18T17:06:36;13.43;;;3.90;;
20832;SDS011;56075;51.264;7.150;2022-10-18T17:09:08;15.07;;;3.75;;
20832;SDS011;56075;51.264;7.150;2022-10-18T17:11:41;12.50;;;4.03;;
20832;SDS011;56075;51.264;7.150;2022-10-18T17:14:13;12.43;;;3.95;;
20832;SDS011;56075;51.264;7.150;2022-10-18T17:16:44;15.65;;;4.80;;
20832;SDS011;56075;51.264;7.150;2022-10-18T17:19:15;16.23;;;4.30;;
20832;SDS011;56075;51.264;7.150;2022-10-18T17:21:46;17.85;;;5.05;;
20832;SDS011;56075;51.264;7.150;2022-10-18T17:24:17;12.30;;;4.55;;
20832;SDS011;56075;51.264;7.150;2022-10-18T17:26:48;13.65;;;4.75;;
20832;SDS011;56075;51.264;7.150;2022-10-18T17:29:20;13.52;;;4.53;;
20832;SDS011;56075;51.264;7.150;2022-10-18T17:31:51;17.77;;;5.00;;